sensor_id;sensor_type;location;lat;lon;timestamp;P1;durP1;ratioP1;P2;durP2;ratioP2
29200;SDS011;16244;51.956;12.980;2024-03-02T00:00:32;24.87;;;14.00;;
29200;SDS011;16244;51.956;12.980;2024-03-02T00:02:59;22.90;;;12.83;;
29200;SDS011;16244;51.956;12.980;2024-03-02T00:05:26;22.77;;;14.00;;
29200;SDS011;16244;51.956;12.980;2024-03-02T00:07:54;21.30;;;13.53;;
29200;SDS011;16244;51.956;12.980;2024-03-02T00:10:25;28.33;;;14.30;;
29200;SDS011;16244;51.956;12.980;2024-03-02T00:12:57;25.03;;;14.03;;
29200;SDS011;16244;51.956;12.980;2024-03-02T00:15:36;29.73;;;14.87;;
29200;SDS011;16244;51.956;12.980;2024-03-02T00:18:09;26.40;;;14.97;;
29200;SDS011;16244;51.956;12.980;2024-03-02T00:20:38;20.10;;;13.90;;
29200;SDS011;16244;51.956;12.980;2024-03-02T00:23:07;22.97;;;14.07;;
29200;SDS011;16244;51.956;12.980;2024-03-02T00:25:37;27.80;;;14.30;;
29200;SDS011;16244;51.956;12.980;2024-03-02T00:28:10;35.63;;;17.97;;
29200;SDS011;16244;51.956;12.980;2024-03-02T00:30:50;25.57;;;14.50;;
29200;SDS011;16244;51.956;12.980;2024-03-02T00:33:19;26.00;;;13.70;;
29200;SDS011;16244;51.956;12.980;2024-03-02T00:35:49;25.03;;;13.27;;
29200;SDS011;16244;51.956;12.980;2024-03-02T00:38:16;27.57;;;15.50;;
29200;SDS011;16244;51.956;12.980;2024-03-02T00:40:44;25.60;;;15.10;;
29200;SDS011;16244;51.956;12.980;2024-03-02T00:46:09;22.70;;;13.20;;
29200;SDS011;16244;51.956;12.980;2024-03-02T00:48:38;27.33;;;13.40;;
29200;SDS011;16244;51.956;12.980;2024-03-02T00:51:11;40.27;;;13.43;;
29200;SDS011;16244;51.956;12.980;2024-03-02T00:53:38;22.83;;;12.93;;
29200;SDS011;16244;51.956;12.980;2024-03-02T00:56:07;20.73;;;12.50;;
29200;SDS011;16244;51.956;12.980;2024-03-02T00:58:37;20.83;;;13.40;;
29200;SDS011;16244;51.956;12.980;2024-03-02T01:01:05;26.23;;;14.40;;
29200;SDS011;16244;51.956;12.980;2024-03-02T01:03:35;23.33;;;13.77;;
29200;SDS011;16244;51.956;12.980;2024-03-02T01:06:04;23.90;;;12.73;;
29200;SDS011;16244;51.956;12.980;2024-03-02T01:08:33;23.20;;;12.80;;
29200;SDS011;16244;51.956;12.980;2024-03-02T01:11:01;23.57;;;15.03;;
29200;SDS011;16244;51.956;12.980;2024-03-02T01:13:28;22.33;;;13.83;;
29200;SDS011;16244;51.956;12.980;2024-03-02T01:15:56;25.77;;;14.47;;
29200;SDS011;16244;51.956;12.980;2024-03-02T01:18:24;24.13;;;14.47;;
29200;SDS011;16244;51.956;12.980;2024-03-02T01:20:53;21.47;;;13.17;;
29200;SDS011;16244;51.956;12.980;2024-03-02T01:23:21;28.03;;;14.47;;
29200;SDS011;16244;51.956;12.980;2024-03-02T01:25:49;26.83;;;13.33;;
29200;SDS011;16244;51.956;12.980;2024-03-02T01:28:17;33.67;;;15.17;;
29200;SDS011;16244;51.956;12.980;2024-03-02T01:30:46;25.90;;;14.70;;
29200;SDS011;16244;51.956;12.980;2024-03-02T01:33:13;27.30;;;14.70;;
29200;SDS011;16244;51.956;12.980;2024-03-02T01:35:41;23.90;;;13.60;;
29200;SDS011;16244;51.956;12.980;2024-03-02T01:38:10;29.40;;;13.90;;
29200;SDS011;16244;51.956;12.980;2024-03-02T01:40:38;24.57;;;13.50;;
29200;SDS011;16244;51.956;12.980;2024-03-02T01:43:06;25.10;;;13.20;;
29200;SDS011;16244;51.956;12.980;2024-03-02T01:45:33;21.37;;;13.90;;
29200;SDS011;16244;51.956;12.980;2024-03-02T01:48:03;26.57;;;14.03;;
29200;SDS011;16244;51.956;12.980;2024-03-02T01:50:32;22.03;;;14.07;;
29200;SDS011;16244;51.956;12.980;2024-03-02T01:53:00;23.23;;;13.60;;
29200;SDS011;16244;51.956;12.980;2024-03-02T01:55:30;25.43;;;14.80;;
29200;SDS011;16244;51.956;12.980;2024-03-02T01:57:59;23.83;;;13.10;;
29200;SDS011;16244;51.956;12.980;2024-03-02T02:00:26;21.37;;;12.10;;
29200;SDS011;16244;51.956;12.980;2024-03-02T02:02:54;29.60;;;13.47;;
29200;SDS011;16244;51.956;12.980;2024-03-02T02:05:23;23.73;;;12.70;;
29200;SDS011;16244;51.956;12.980;2024-03-02T02:07:50;21.03;;;12.60;;
29200;SDS011;16244;51.956;12.980;2024-03-02T02:10:18;24.87;;;12.73;;
29200;SDS011;16244;51.956;12.980;2024-03-02T02:12:47;21.57;;;13.20;;
29200;SDS011;16244;51.956;12.980;2024-03-02T02:15:23;18.10;;;12.13;;
29200;SDS011;16244;51.956;12.980;2024-03-02T02:17:52;24.80;;;13.63;;
29200;SDS011;16244;51.956;12.980;2024-03-02T02:20:19;22.97;;;13.03;;
29200;SDS011;16244;51.956;12.980;2024-03-02T02:22:58;31.83;;;12.63;;
29200;SDS011;16244;51.956;12.980;2024-03-02T02:25:26;19.20;;;12.53;;
29200;SDS011;16244;51.956;12.980;2024-03-02T02:27:53;29.30;;;12.67;;
29200;SDS011;16244;51.956;12.980;2024-03-02T02:30:21;19.37;;;12.83;;
29200;SDS011;16244;51.956;12.980;2024-03-02T02:32:50;20.57;;;11.73;;
29200;SDS011;16244;51.956;12.980;2024-03-02T02:35:17;40.93;;;12.43;;
29200;SDS011;16244;51.956;12.980;2024-03-02T02:37:45;28.13;;;12.93;;
29200;SDS011;16244;51.956;12.980;2024-03-02T02:40:15;18.33;;;12.07;;
29200;SDS011;16244;51.956;12.980;2024-03-02T02:42:44;22.40;;;13.30;;
29200;SDS011;16244;51.956;12.980;2024-03-02T02:45:12;26.63;;;13.77;;
29200;SDS011;16244;51.956;12.980;2024-03-02T02:47:40;24.17;;;13.93;;
29200;SDS011;16244;51.956;12.980;2024-03-02T02:50:08;35.13;;;15.50;;
29200;SDS011;16244;51.956;12.980;2024-03-02T02:52:37;28.43;;;15.03;;
29200;SDS011;16244;51.956;12.980;2024-03-02T02:55:06;27.63;;;16.60;;
29200;SDS011;16244;51.956;12.980;2024-03-02T02:57:36;27.70;;;16.17;;
29200;SDS011;16244;51.956;12.980;2024-03-02T03:00:05;33.03;;;18.83;;
29200;SDS011;16244;51.956;12.980;2024-03-02T03:02:40;31.10;;;16.87;;
29200;SDS011;16244;51.956;12.980;2024-03-02T03:05:08;30.67;;;16.70;;
29200;SDS011;16244;51.956;12.980;2024-03-02T03:07:36;26.90;;;16.47;;
29200;SDS011;16244;51.956;12.980;2024-03-02T03:10:06;34.40;;;18.13;;
29200;SDS011;16244;51.956;12.980;2024-03-02T03:12:34;33.17;;;17.87;;
29200;SDS011;16244;51.956;12.980;2024-03-02T03:15:03;33.43;;;17.87;;
29200;SDS011;16244;51.956;12.980;2024-03-02T03:17:32;36.63;;;19.43;;
29200;SDS011;16244;51.956;12.980;2024-03-02T03:20:00;38.67;;;20.97;;
29200;SDS011;16244;51.956;12.980;2024-03-02T03:22:29;40.03;;;20.50;;
29200;SDS011;16244;51.956;12.980;2024-03-02T03:24:57;41.60;;;19.70;;
29200;SDS011;16244;51.956;12.980;2024-03-02T03:27:25;42.90;;;20.40;;
29200;SDS011;16244;51.956;12.980;2024-03-02T03:29:54;42.50;;;21.10;;
29200;SDS011;16244;51.956;12.980;2024-03-02T03:32:22;38.33;;;20.00;;
29200;SDS011;16244;51.956;12.980;2024-03-02T03:34:49;39.03;;;20.80;;
29200;SDS011;16244;51.956;12.980;2024-03-02T03:37:17;43.77;;;21.07;;
29200;SDS011;16244;51.956;12.980;2024-03-02T03:39:44;32.33;;;19.77;;
29200;SDS011;16244;51.956;12.980;2024-03-02T03:42:12;51.10;;;24.40;;
29200;SDS011;16244;51.956;12.980;2024-03-02T03:44:39;50.77;;;23.80;;
29200;SDS011;16244;51.956;12.980;2024-03-02T03:47:08;48.90;;;22.87;;
29200;SDS011;16244;51.956;12.980;2024-03-02T03:49:36;49.23;;;23.73;;
29200;SDS011;16244;51.956;12.980;2024-03-02T03:52:04;43.70;;;22.70;;
29200;SDS011;16244;51.956;12.980;2024-03-02T03:54:31;54.83;;;23.13;;
29200;SDS011;16244;51.956;12.980;2024-03-02T03:56:58;40.70;;;22.07;;
29200;SDS011;16244;51.956;12.980;2024-03-02T03:59:26;45.27;;;23.10;;
29200;SDS011;16244;51.956;12.980;2024-03-02T04:01:53;44.53;;;21.60;;
29200;SDS011;16244;51.956;12.980;2024-03-02T04:04:22;48.87;;;22.97;;
29200;SDS011;16244;51.956;12.980;2024-03-02T04:06:49;43.30;;;21.10;;
29200;SDS011;16244;51.956;12.980;2024-03-02T04:09:17;50.57;;;23.43;;
29200;SDS011;16244;51.956;12.980;2024-03-02T04:11:44;44.10;;;21.97;;
29200;SDS011;16244;51.956;12.980;2024-03-02T04:14:12;49.40;;;24.53;;
29200;SDS011;16244;51.956;12.980;2024-03-02T04:16:39;46.43;;;20.50;;
29200;SDS011;16244;51.956;12.980;2024-03-02T04:19:07;48.00;;;22.30;;
29200;SDS011;16244;51.956;12.980;2024-03-02T04:21:35;50.13;;;22.33;;
29200;SDS011;16244;51.956;12.980;2024-03-02T04:24:03;49.07;;;24.00;;
29200;SDS011;16244;51.956;12.980;2024-03-02T04:26:31;48.23;;;20.47;;
29200;SDS011;16244;51.956;12.980;2024-03-02T04:28:58;47.10;;;23.03;;
29200;SDS011;16244;51.956;12.980;2024-03-02T04:31:26;45.97;;;22.00;;
29200;SDS011;16244;51.956;12.980;2024-03-02T04:33:53;41.07;;;21.00;;
29200;SDS011;16244;51.956;12.980;2024-03-02T04:36:20;68.57;;;23.23;;
29200;SDS011;16244;51.956;12.980;2024-03-02T04:38:50;49.03;;;24.23;;
29200;SDS011;16244;51.956;12.980;2024-03-02T04:41:18;44.20;;;22.00;;
29200;SDS011;16244;51.956;12.980;2024-03-02T04:43:45;49.87;;;20.90;;
29200;SDS011;16244;51.956;12.980;2024-03-02T04:46:13;44.17;;;21.47;;
29200;SDS011;16244;51.956;12.980;2024-03-02T04:48:41;51.47;;;22.50;;
29200;SDS011;16244;51.956;12.980;2024-03-02T04:51:08;52.83;;;22.57;;
29200;SDS011;16244;51.956;12.980;2024-03-02T04:53:37;37.83;;;21.10;;
29200;SDS011;16244;51.956;12.980;2024-03-02T04:56:06;51.83;;;22.40;;
29200;SDS011;16244;51.956;12.980;2024-03-02T04:58:51;59.20;;;22.50;;
29200;SDS011;16244;51.956;12.980;2024-03-02T05:01:18;50.83;;;22.57;;
29200;SDS011;16244;51.956;12.980;2024-03-02T05:03:45;40.20;;;21.23;;
29200;SDS011;16244;51.956;12.980;2024-03-02T05:06:13;50.70;;;20.67;;
29200;SDS011;16244;51.956;12.980;2024-03-02T05:08:40;39.10;;;20.00;;
29200;SDS011;16244;51.956;12.980;2024-03-02T05:11:09;45.20;;;22.40;;
29200;SDS011;16244;51.956;12.980;2024-03-02T05:13:53;46.27;;;21.17;;
29200;SDS011;16244;51.956;12.980;2024-03-02T05:16:21;50.47;;;21.57;;
29200;SDS011;16244;51.956;12.980;2024-03-02T05:18:48;38.93;;;19.73;;
29200;SDS011;16244;51.956;12.980;2024-03-02T05:21:16;34.73;;;20.23;;
29200;SDS011;16244;51.956;12.980;2024-03-02T05:23:43;49.27;;;22.07;;
29200;SDS011;16244;51.956;12.980;2024-03-02T05:26:12;42.40;;;19.47;;
29200;SDS011;16244;51.956;12.980;2024-03-02T05:28:40;43.57;;;19.87;;
29200;SDS011;16244;51.956;12.980;2024-03-02T05:31:09;47.47;;;22.33;;
29200;SDS011;16244;51.956;12.980;2024-03-02T05:33:37;39.40;;;18.77;;
29200;SDS011;16244;51.956;12.980;2024-03-02T05:36:05;35.93;;;19.47;;
29200;SDS011;16244;51.956;12.980;2024-03-02T05:38:34;39.33;;;20.37;;
29200;SDS011;16244;51.956;12.980;2024-03-02T05:41:02;45.23;;;20.47;;
29200;SDS011;16244;51.956;12.980;2024-03-02T05:43:31;47.37;;;21.73;;
29200;SDS011;16244;51.956;12.980;2024-03-02T05:45:59;30.17;;;18.73;;
29200;SDS011;16244;51.956;12.980;2024-03-02T05:48:26;44.83;;;21.23;;
29200;SDS011;16244;51.956;12.980;2024-03-02T05:50:55;36.90;;;20.57;;
29200;SDS011;16244;51.956;12.980;2024-03-02T05:53:22;37.73;;;20.50;;
29200;SDS011;16244;51.956;12.980;2024-03-02T05:55:50;37.17;;;19.10;;
29200;SDS011;16244;51.956;12.980;2024-03-02T05:58:21;41.00;;;21.07;;
29200;SDS011;16244;51.956;12.980;2024-03-02T06:01:00;39.10;;;20.03;;
29200;SDS011;16244;51.956;12.980;2024-03-02T06:03:28;40.97;;;19.53;;
29200;SDS011;16244;51.956;12.980;2024-03-02T06:05:55;47.87;;;21.23;;
29200;SDS011;16244;51.956;12.980;2024-03-02T06:08:23;46.20;;;21.30;;
29200;SDS011;16244;51.956;12.980;2024-03-02T06:10:50;33.03;;;19.57;;
29200;SDS011;16244;51.956;12.980;2024-03-02T06:13:18;42.30;;;19.83;;
29200;SDS011;16244;51.956;12.980;2024-03-02T06:15:45;45.33;;;18.07;;
29200;SDS011;16244;51.956;12.980;2024-03-02T06:18:14;41.80;;;20.23;;
29200;SDS011;16244;51.956;12.980;2024-03-02T06:20:42;41.13;;;20.27;;
29200;SDS011;16244;51.956;12.980;2024-03-02T06:23:09;41.13;;;20.27;;
29200;SDS011;16244;51.956;12.980;2024-03-02T06:25:37;42.90;;;19.93;;
29200;SDS011;16244;51.956;12.980;2024-03-02T06:28:04;36.70;;;19.83;;
29200;SDS011;16244;51.956;12.980;2024-03-02T06:30:33;43.70;;;20.40;;
29200;SDS011;16244;51.956;12.980;2024-03-02T06:33:00;45.57;;;21.67;;
29200;SDS011;16244;51.956;12.980;2024-03-02T06:35:31;44.27;;;21.10;;
29200;SDS011;16244;51.956;12.980;2024-03-02T06:37:58;35.77;;;19.17;;
29200;SDS011;16244;51.956;12.980;2024-03-02T06:40:26;54.90;;;20.50;;
29200;SDS011;16244;51.956;12.980;2024-03-02T06:42:53;37.07;;;20.27;;
29200;SDS011;16244;51.956;12.980;2024-03-02T06:45:20;36.40;;;20.70;;
29200;SDS011;16244;51.956;12.980;2024-03-02T06:47:48;40.90;;;22.10;;
29200;SDS011;16244;51.956;12.980;2024-03-02T06:50:15;44.53;;;20.87;;
29200;SDS011;16244;51.956;12.980;2024-03-02T06:52:44;36.90;;;19.83;;
29200;SDS011;16244;51.956;12.980;2024-03-02T06:55:11;40.47;;;20.23;;
29200;SDS011;16244;51.956;12.980;2024-03-02T06:57:39;37.50;;;19.10;;
29200;SDS011;16244;51.956;12.980;2024-03-02T07:00:07;35.40;;;19.40;;
29200;SDS011;16244;51.956;12.980;2024-03-02T07:02:35;31.17;;;17.67;;
29200;SDS011;16244;51.956;12.980;2024-03-02T07:05:03;43.63;;;18.93;;
29200;SDS011;16244;51.956;12.980;2024-03-02T07:07:30;40.00;;;19.57;;
29200;SDS011;16244;51.956;12.980;2024-03-02T07:09:59;35.73;;;18.43;;
29200;SDS011;16244;51.956;12.980;2024-03-02T07:12:27;33.13;;;17.90;;
29200;SDS011;16244;51.956;12.980;2024-03-02T07:14:54;43.30;;;19.57;;
29200;SDS011;16244;51.956;12.980;2024-03-02T07:17:37;32.47;;;18.00;;
29200;SDS011;16244;51.956;12.980;2024-03-02T07:20:05;36.03;;;18.20;;
29200;SDS011;16244;51.956;12.980;2024-03-02T07:22:33;41.27;;;20.60;;
29200;SDS011;16244;51.956;12.980;2024-03-02T07:25:03;37.93;;;18.47;;
29200;SDS011;16244;51.956;12.980;2024-03-02T07:27:33;38.87;;;17.23;;
29200;SDS011;16244;51.956;12.980;2024-03-02T07:30:01;28.40;;;16.50;;
29200;SDS011;16244;51.956;12.980;2024-03-02T07:32:29;30.07;;;17.87;;
29200;SDS011;16244;51.956;12.980;2024-03-02T07:34:57;37.57;;;17.70;;
29200;SDS011;16244;51.956;12.980;2024-03-02T07:37:24;36.60;;;19.37;;
29200;SDS011;16244;51.956;12.980;2024-03-02T07:39:51;34.50;;;19.63;;
29200;SDS011;16244;51.956;12.980;2024-03-02T07:42:20;33.20;;;17.77;;
29200;SDS011;16244;51.956;12.980;2024-03-02T07:44:48;42.30;;;20.00;;
29200;SDS011;16244;51.956;12.980;2024-03-02T07:47:15;39.20;;;18.90;;
29200;SDS011;16244;51.956;12.980;2024-03-02T07:49:44;37.83;;;18.93;;
29200;SDS011;16244;51.956;12.980;2024-03-02T07:52:11;38.60;;;19.43;;
29200;SDS011;16244;51.956;12.980;2024-03-02T07:54:39;39.47;;;18.00;;
29200;SDS011;16244;51.956;12.980;2024-03-02T07:57:07;33.77;;;20.30;;
29200;SDS011;16244;51.956;12.980;2024-03-02T07:59:35;33.47;;;17.90;;
29200;SDS011;16244;51.956;12.980;2024-03-02T08:02:04;33.20;;;18.27;;
29200;SDS011;16244;51.956;12.980;2024-03-02T08:04:32;32.83;;;16.53;;
29200;SDS011;16244;51.956;12.980;2024-03-02T08:06:59;36.60;;;18.77;;
29200;SDS011;16244;51.956;12.980;2024-03-02T08:09:27;32.67;;;16.60;;
29200;SDS011;16244;51.956;12.980;2024-03-02T08:11:54;31.13;;;16.90;;
29200;SDS011;16244;51.956;12.980;2024-03-02T08:14:22;29.40;;;17.73;;
29200;SDS011;16244;51.956;12.980;2024-03-02T08:16:51;29.83;;;17.60;;
29200;SDS011;16244;51.956;12.980;2024-03-02T08:19:19;31.07;;;16.40;;
29200;SDS011;16244;51.956;12.980;2024-03-02T08:21:46;30.23;;;16.20;;
29200;SDS011;16244;51.956;12.980;2024-03-02T08:24:14;34.60;;;17.40;;
29200;SDS011;16244;51.956;12.980;2024-03-02T08:26:41;27.87;;;16.70;;
29200;SDS011;16244;51.956;12.980;2024-03-02T08:29:09;34.07;;;18.03;;
29200;SDS011;16244;51.956;12.980;2024-03-02T08:31:37;47.77;;;17.67;;
29200;SDS011;16244;51.956;12.980;2024-03-02T08:34:06;36.13;;;18.90;;
29200;SDS011;16244;51.956;12.980;2024-03-02T08:36:34;35.13;;;17.57;;
29200;SDS011;16244;51.956;12.980;2024-03-02T08:39:02;39.53;;;18.07;;
29200;SDS011;16244;51.956;12.980;2024-03-02T08:41:33;35.10;;;17.07;;
29200;SDS011;16244;51.956;12.980;2024-03-02T08:44:00;37.03;;;19.10;;
29200;SDS011;16244;51.956;12.980;2024-03-02T08:46:28;30.37;;;16.83;;
29200;SDS011;16244;51.956;12.980;2024-03-02T08:48:55;34.27;;;16.60;;
29200;SDS011;16244;51.956;12.980;2024-03-02T08:51:24;30.27;;;16.50;;
29200;SDS011;16244;51.956;12.980;2024-03-02T08:53:51;27.43;;;16.20;;
29200;SDS011;16244;51.956;12.980;2024-03-02T08:56:19;33.83;;;16.73;;
29200;SDS011;16244;51.956;12.980;2024-03-02T08:58:47;25.70;;;14.67;;
29200;SDS011;16244;51.956;12.980;2024-03-02T09:01:15;29.17;;;15.80;;
29200;SDS011;16244;51.956;12.980;2024-03-02T09:03:43;25.27;;;15.00;;
29200;SDS011;16244;51.956;12.980;2024-03-02T09:06:11;27.27;;;15.40;;
29200;SDS011;16244;51.956;12.980;2024-03-02T09:08:40;28.70;;;16.17;;
29200;SDS011;16244;51.956;12.980;2024-03-02T09:11:08;27.47;;;16.10;;
29200;SDS011;16244;51.956;12.980;2024-03-02T09:13:37;29.97;;;16.90;;
29200;SDS011;16244;51.956;12.980;2024-03-02T09:16:05;24.10;;;14.77;;
29200;SDS011;16244;51.956;12.980;2024-03-02T09:18:33;26.77;;;15.30;;
29200;SDS011;16244;51.956;12.980;2024-03-02T09:21:00;26.47;;;15.97;;
29200;SDS011;16244;51.956;12.980;2024-03-02T09:23:28;27.03;;;16.53;;
29200;SDS011;16244;51.956;12.980;2024-03-02T09:25:57;27.80;;;15.37;;
29200;SDS011;16244;51.956;12.980;2024-03-02T09:28:24;25.27;;;14.10;;
29200;SDS011;16244;51.956;12.980;2024-03-02T09:30:52;29.20;;;16.13;;
29200;SDS011;16244;51.956;12.980;2024-03-02T09:33:19;31.50;;;16.50;;
29200;SDS011;16244;51.956;12.980;2024-03-02T09:35:47;27.27;;;16.97;;
29200;SDS011;16244;51.956;12.980;2024-03-02T09:38:15;22.23;;;14.67;;
29200;SDS011;16244;51.956;12.980;2024-03-02T09:40:42;26.93;;;16.63;;
29200;SDS011;16244;51.956;12.980;2024-03-02T09:43:11;27.97;;;15.97;;
29200;SDS011;16244;51.956;12.980;2024-03-02T09:45:40;36.00;;;17.50;;
29200;SDS011;16244;51.956;12.980;2024-03-02T09:48:08;28.67;;;16.10;;
29200;SDS011;16244;51.956;12.980;2024-03-02T09:50:35;33.03;;;16.30;;
29200;SDS011;16244;51.956;12.980;2024-03-02T09:53:03;26.20;;;16.13;;
29200;SDS011;16244;51.956;12.980;2024-03-02T09:55:32;24.10;;;14.87;;
29200;SDS011;16244;51.956;12.980;2024-03-02T09:57:59;30.50;;;14.43;;
29200;SDS011;16244;51.956;12.980;2024-03-02T10:00:28;26.57;;;15.10;;
29200;SDS011;16244;51.956;12.980;2024-03-02T10:02:56;24.57;;;15.33;;
29200;SDS011;16244;51.956;12.980;2024-03-02T10:05:24;27.17;;;15.03;;
29200;SDS011;16244;51.956;12.980;2024-03-02T10:08:00;24.97;;;14.43;;
29200;SDS011;16244;51.956;12.980;2024-03-02T10:10:35;24.77;;;15.07;;
29200;SDS011;16244;51.956;12.980;2024-03-02T10:13:06;24.97;;;13.43;;
29200;SDS011;16244;51.956;12.980;2024-03-02T10:15:36;22.70;;;14.30;;
29200;SDS011;16244;51.956;12.980;2024-03-02T10:18:07;25.57;;;15.20;;
29200;SDS011;16244;51.956;12.980;2024-03-02T10:20:36;34.90;;;17.37;;
29200;SDS011;16244;51.956;12.980;2024-03-02T10:23:10;26.47;;;15.23;;
29200;SDS011;16244;51.956;12.980;2024-03-02T10:25:39;25.77;;;14.30;;
29200;SDS011;16244;51.956;12.980;2024-03-02T10:28:07;21.07;;;14.03;;
29200;SDS011;16244;51.956;12.980;2024-03-02T10:30:36;22.20;;;14.53;;
29200;SDS011;16244;51.956;12.980;2024-03-02T10:33:04;20.00;;;13.83;;
29200;SDS011;16244;51.956;12.980;2024-03-02T10:35:32;26.97;;;15.83;;
29200;SDS011;16244;51.956;12.980;2024-03-02T10:38:03;22.03;;;14.90;;
29200;SDS011;16244;51.956;12.980;2024-03-02T10:40:31;20.37;;;13.67;;
29200;SDS011;16244;51.956;12.980;2024-03-02T10:42:59;22.80;;;13.23;;
29200;SDS011;16244;51.956;12.980;2024-03-02T10:45:29;18.10;;;13.00;;
29200;SDS011;16244;51.956;12.980;2024-03-02T10:47:58;23.30;;;13.90;;
29200;SDS011;16244;51.956;12.980;2024-03-02T10:50:27;25.53;;;15.60;;
29200;SDS011;16244;51.956;12.980;2024-03-02T10:52:55;21.63;;;13.20;;
29200;SDS011;16244;51.956;12.980;2024-03-02T10:55:22;25.23;;;15.23;;
29200;SDS011;16244;51.956;12.980;2024-03-02T10:57:50;20.47;;;13.50;;
29200;SDS011;16244;51.956;12.980;2024-03-02T11:00:19;24.50;;;14.40;;
29200;SDS011;16244;51.956;12.980;2024-03-02T11:02:51;28.63;;;17.20;;
29200;SDS011;16244;51.956;12.980;2024-03-02T11:05:26;38.20;;;15.17;;
29200;SDS011;16244;51.956;12.980;2024-03-02T11:07:57;29.47;;;14.90;;
29200;SDS011;16244;51.956;12.980;2024-03-02T11:10:31;23.57;;;14.80;;
29200;SDS011;16244;51.956;12.980;2024-03-02T11:13:02;22.43;;;13.47;;
29200;SDS011;16244;51.956;12.980;2024-03-02T11:15:35;19.70;;;12.10;;
29200;SDS011;16244;51.956;12.980;2024-03-02T11:18:03;13.90;;;10.13;;
29200;SDS011;16244;51.956;12.980;2024-03-02T11:20:37;19.67;;;12.60;;
29200;SDS011;16244;51.956;12.980;2024-03-02T11:23:05;16.43;;;10.77;;
29200;SDS011;16244;51.956;12.980;2024-03-02T11:25:34;16.03;;;11.50;;
29200;SDS011;16244;51.956;12.980;2024-03-02T11:28:02;16.70;;;11.13;;
29200;SDS011;16244;51.956;12.980;2024-03-02T11:30:49;18.43;;;10.97;;
29200;SDS011;16244;51.956;12.980;2024-03-02T11:33:24;16.23;;;10.97;;
29200;SDS011;16244;51.956;12.980;2024-03-02T11:35:57;17.00;;;10.73;;
29200;SDS011;16244;51.956;12.980;2024-03-02T11:38:30;15.43;;;11.73;;
29200;SDS011;16244;51.956;12.980;2024-03-02T11:40:59;19.93;;;12.83;;
29200;SDS011;16244;51.956;12.980;2024-03-02T11:43:28;21.90;;;12.40;;
29200;SDS011;16244;51.956;12.980;2024-03-02T11:45:56;20.70;;;12.87;;
29200;SDS011;16244;51.956;12.980;2024-03-02T11:48:25;24.77;;;14.97;;
29200;SDS011;16244;51.956;12.980;2024-03-02T11:50:53;21.80;;;12.10;;
29200;SDS011;16244;51.956;12.980;2024-03-02T11:53:28;18.80;;;11.87;;
29200;SDS011;16244;51.956;12.980;2024-03-02T11:55:57;18.90;;;11.20;;
29200;SDS011;16244;51.956;12.980;2024-03-02T11:58:27;23.10;;;13.80;;
29200;SDS011;16244;51.956;12.980;2024-03-02T12:00:55;18.50;;;12.10;;
29200;SDS011;16244;51.956;12.980;2024-03-02T12:03:23;22.80;;;11.27;;
29200;SDS011;16244;51.956;12.980;2024-03-02T12:05:52;16.30;;;10.70;;
29200;SDS011;16244;51.956;12.980;2024-03-02T12:08:20;19.83;;;11.20;;
29200;SDS011;16244;51.956;12.980;2024-03-02T12:10:57;17.23;;;11.73;;
29200;SDS011;16244;51.956;12.980;2024-03-02T12:13:26;17.67;;;10.60;;
29200;SDS011;16244;51.956;12.980;2024-03-02T12:15:55;11.50;;;9.43;;
29200;SDS011;16244;51.956;12.980;2024-03-02T12:18:23;13.87;;;9.70;;
29200;SDS011;16244;51.956;12.980;2024-03-02T12:20:51;17.03;;;9.47;;
29200;SDS011;16244;51.956;12.980;2024-03-02T12:23:22;15.30;;;10.13;;
29200;SDS011;16244;51.956;12.980;2024-03-02T12:25:49;21.80;;;10.70;;
29200;SDS011;16244;51.956;12.980;2024-03-02T12:28:19;11.70;;;9.20;;
29200;SDS011;16244;51.956;12.980;2024-03-02T12:30:47;12.73;;;8.33;;
29200;SDS011;16244;51.956;12.980;2024-03-02T12:33:15;19.53;;;9.20;;
29200;SDS011;16244;51.956;12.980;2024-03-02T12:35:44;17.10;;;10.30;;
29200;SDS011;16244;51.956;12.980;2024-03-02T12:38:12;12.83;;;9.30;;
29200;SDS011;16244;51.956;12.980;2024-03-02T12:40:39;11.13;;;9.20;;
29200;SDS011;16244;51.956;12.980;2024-03-02T12:43:07;16.90;;;10.00;;
29200;SDS011;16244;51.956;12.980;2024-03-02T12:45:36;10.97;;;8.63;;
29200;SDS011;16244;51.956;12.980;2024-03-02T12:48:04;13.13;;;8.87;;
29200;SDS011;16244;51.956;12.980;2024-03-02T12:50:32;11.30;;;8.00;;
29200;SDS011;16244;51.956;12.980;2024-03-02T12:53:00;9.40;;;7.37;;
29200;SDS011;16244;51.956;12.980;2024-03-02T12:55:28;13.70;;;8.77;;
29200;SDS011;16244;51.956;12.980;2024-03-02T12:57:55;10.47;;;7.67;;
29200;SDS011;16244;51.956;12.980;2024-03-02T13:00:24;14.80;;;8.13;;
29200;SDS011;16244;51.956;12.980;2024-03-02T13:02:53;16.50;;;8.73;;
29200;SDS011;16244;51.956;12.980;2024-03-02T13:05:29;12.27;;;8.87;;
29200;SDS011;16244;51.956;12.980;2024-03-02T13:07:57;10.20;;;8.20;;
29200;SDS011;16244;51.956;12.980;2024-03-02T13:10:26;13.30;;;8.33;;
29200;SDS011;16244;51.956;12.980;2024-03-02T13:12:55;11.10;;;8.10;;
29200;SDS011;16244;51.956;12.980;2024-03-02T13:15:23;12.27;;;8.77;;
29200;SDS011;16244;51.956;12.980;2024-03-02T13:17:50;13.50;;;8.10;;
29200;SDS011;16244;51.956;12.980;2024-03-02T13:20:19;10.23;;;8.73;;
29200;SDS011;16244;51.956;12.980;2024-03-02T13:22:46;12.57;;;8.27;;
29200;SDS011;16244;51.956;12.980;2024-03-02T13:25:14;13.97;;;8.20;;
29200;SDS011;16244;51.956;12.980;2024-03-02T13:27:41;9.20;;;7.87;;
29200;SDS011;16244;51.956;12.980;2024-03-02T13:30:09;9.33;;;7.77;;
29200;SDS011;16244;51.956;12.980;2024-03-02T13:32:37;16.40;;;9.00;;
29200;SDS011;16244;51.956;12.980;2024-03-02T13:35:04;12.53;;;9.37;;
29200;SDS011;16244;51.956;12.980;2024-03-02T13:37:34;15.50;;;9.20;;
29200;SDS011;16244;51.956;12.980;2024-03-02T13:40:01;15.33;;;9.37;;
29200;SDS011;16244;51.956;12.980;2024-03-02T13:42:30;17.63;;;9.97;;
29200;SDS011;16244;51.956;12.980;2024-03-02T13:44:58;13.60;;;9.90;;
29200;SDS011;16244;51.956;12.980;2024-03-02T13:47:25;16.83;;;10.87;;
29200;SDS011;16244;51.956;12.980;2024-03-02T13:49:53;13.40;;;9.43;;
29200;SDS011;16244;51.956;12.980;2024-03-02T13:52:21;16.57;;;9.60;;
29200;SDS011;16244;51.956;12.980;2024-03-02T13:54:49;13.00;;;9.37;;
29200;SDS011;16244;51.956;12.980;2024-03-02T13:57:18;9.50;;;7.40;;
29200;SDS011;16244;51.956;12.980;2024-03-02T13:59:46;10.13;;;6.83;;
29200;SDS011;16244;51.956;12.980;2024-03-02T14:02:14;9.17;;;6.73;;
29200;SDS011;16244;51.956;12.980;2024-03-02T14:04:42;7.60;;;5.80;;
29200;SDS011;16244;51.956;12.980;2024-03-02T14:07:10;8.87;;;7.77;;
29200;SDS011;16244;51.956;12.980;2024-03-02T14:09:37;11.50;;;7.80;;
29200;SDS011;16244;51.956;12.980;2024-03-02T14:12:07;13.97;;;10.40;;
29200;SDS011;16244;51.956;12.980;2024-03-02T14:14:36;13.57;;;9.07;;
29200;SDS011;16244;51.956;12.980;2024-03-02T14:17:03;15.00;;;10.13;;
29200;SDS011;16244;51.956;12.980;2024-03-02T14:19:32;11.60;;;9.37;;
29200;SDS011;16244;51.956;12.980;2024-03-02T14:21:59;12.27;;;9.67;;